Time;durP1;ratioP1;P1;durP2;ratioP2;P2;SDS_P1;SDS_P2;PMS_P1;PMS_P2;Temp;Humidity;BMP_temperature;BMP_pressure;BME280_temperature;BME280_humidity;BME280_pressure;Samples;Min_cycle;Max_cycle;Signal;HPM_P1;HPM_P2
2023/08/17 00:00:57;;;;;;;12.30;5.70;;;;;;;;;;5024134;28;20032;-69
2023/08/17 00:03:23;;;;;;;10.93;5.80;;;;;;;;;;5015972;28;20020;-68
2023/08/17 00:05:48;;;;;;;9.07;5.40;;;;;;;;;;5026864;28;20044;-68
2023/08/17 00:08:13;;;;;;;10.85;5.53;;;;;;;;;;5027803;28;20014;-68
2023/08/17 00:10:39;;;;;;;10.57;5.43;;;;;;;;;;5027989;28;20014;-65
2023/08/17 00:13:04;;;;;;;7.97;5.60;;;;;;;;;;5027696;28;20067;-67
2023/08/17 00:15:29;;;;;;;12.75;5.28;;;;;;;;;;5027349;28;20025;-66
2023/08/17 00:17:54;;;;;;;9.13;5.40;;;;;;;;;;5027486;28;20486;-68
2023/08/17 00:20:20;;;;;;;12.43;5.13;;;;;;;;;;5027969;28;20014;-68
2023/08/17 00:22:45;;;;;;;8.38;5.22;;;;;;;;;;5030787;28;20254;-68
2023/08/17 00:25:10;;;;;;;8.30;5.13;;;;;;;;;;5031729;28;20159;-69
2023/08/17 00:27:36;;;;;;;10.95;5.40;;;;;;;;;;5030389;28;20017;-68
2023/08/17 00:30:01;;;;;;;9.07;5.30;;;;;;;;;;5031641;28;20071;-65
2023/08/17 00:32:26;;;;;;;8.90;5.22;;;;;;;;;;5031543;28;20009;-69
2023/08/17 00:34:52;;;;;;;9.10;5.65;;;;;;;;;;5022937;28;20100;-67
2023/08/17 00:37:17;;;;;;;9.35;5.25;;;;;;;;;;5027354;28;20131;-68
2023/08/17 00:39:42;;;;;;;8.07;4.85;;;;;;;;;;5031598;28;20164;-67
2023/08/17 00:42:08;;;;;;;10.32;5.43;;;;;;;;;;5031447;28;20018;-66
2023/08/17 00:44:33;;;;;;;10.77;5.45;;;;;;;;;;5031417;28;20017;-68
2023/08/17 00:46:59;;;;;;;9.60;5.13;;;;;;;;;;5030061;28;20110;-67
2023/08/17 00:49:24;;;;;;;10.73;5.47;;;;;;;;;;5031863;28;20025;-69
2023/08/17 00:51:49;;;;;;;14.25;5.82;;;;;;;;;;5030968;28;20021;-68
2023/08/17 00:54:17;;;;;;;8.60;4.55;;;;;;;;;;5031021;28;20013;-68
2023/08/17 00:56:42;;;;;;;8.75;5.40;;;;;;;;;;5030953;28;20033;-68
2023/08/17 00:59:07;;;;;;;9.70;4.93;;;;;;;;;;5030810;28;20024;-65
2023/08/17 01:01:32;;;;;;;9.00;5.05;;;;;;;;;;5030146;28;20021;-67
2023/08/17 01:03:58;;;;;;;7.45;5.00;;;;;;;;;;5028750;28;20076;-65
2023/08/17 01:06:23;;;;;;;8.77;4.68;;;;;;;;;;5030360;28;20017;-68
2023/08/17 01:08:48;;;;;;;8.05;4.90;;;;;;;;;;5029331;28;20374;-68
2023/08/17 01:11:24;;;;;;;8.73;4.72;;;;;;;;;;5029992;28;20028;-68
2023/08/17 01:13:55;;;;;;;9.25;4.93;;;;;;;;;;5030633;28;20021;-68
2023/08/17 01:16:32;;;;;;;6.88;4.80;;;;;;;;;;5030409;28;20024;-69
2023/08/17 01:19:00;;;;;;;9.18;5.05;;;;;;;;;;5030849;28;20020;-69
2023/08/17 01:21:29;;;;;;;9.02;4.90;;;;;;;;;;5030888;28;20116;-69
2023/08/17 01:23:57;;;;;;;7.90;5.03;;;;;;;;;;5030532;28;20009;-69
2023/08/17 01:26:22;;;;;;;10.02;5.20;;;;;;;;;;5030822;28;20036;-67
2023/08/17 01:28:47;;;;;;;10.20;5.30;;;;;;;;;;5030552;28;20371;-69
2023/08/17 01:31:19;;;;;;;11.23;5.07;;;;;;;;;;5030215;28;20681;-68
2023/08/17 01:33:47;;;;;;;9.38;5.35;;;;;;;;;;5021537;28;20026;-70
2023/08/17 01:36:13;;;;;;;;;;;;;;;;;;5030837;28;20018;-67
2023/08/17 01:38:38;;;;;;;10.05;4.95;;;;;;;;;;5026645;28;19923;-68
2023/08/17 01:41:04;;;;;;;8.32;5.00;;;;;;;;;;5030404;28;20593;-68
2023/08/17 01:43:30;;;;;;;9.35;4.63;;;;;;;;;;5029959;28;20017;-69
2023/08/17 01:45:55;;;;;;;11.27;4.88;;;;;;;;;;5030360;28;20166;-68
2023/08/17 01:48:20;;;;;;;8.40;5.00;;;;;;;;;;5029822;28;20032;-68
2023/08/17 01:50:45;;;;;;;11.80;4.38;;;;;;;;;;5028789;28;20101;-68
2023/08/17 01:53:11;;;;;;;8.02;4.85;;;;;;;;;;5029578;28;20052;-66
2023/08/17 01:55:37;;;;;;;9.25;4.75;;;;;;;;;;5029932;28;20032;-69
2023/08/17 01:58:02;;;;;;;8.48;4.30;;;;;;;;;;5082993;22;20040;-73
2023/08/17 02:00:28;;;;;;;11.48;5.13;;;;;;;;;;5049492;28;20071;-71
2023/08/17 02:02:53;;;;;;;9.35;5.43;;;;;;;;;;5051635;28;20067;-72
2023/08/17 02:05:18;;;;;;;8.48;5.47;;;;;;;;;;5050855;28;20455;-73
2023/08/17 02:07:44;;;;;;;11.25;5.60;;;;;;;;;;5046725;28;20079;-70
2023/08/17 02:10:09;;;;;;;8.77;5.60;;;;;;;;;;5030927;28;20506;-72
2023/08/17 02:12:34;;;;;;;8.05;4.10;;;;;;;;;;5029443;28;20013;-69
2023/08/17 02:15:00;;;;;;;9.80;2.58;;;;;;;;;;5030821;28;20044;-68
2023/08/17 02:17:25;;;;;;;4.32;2.03;;;;;;;;;;5031875;28;20013;-70
2023/08/17 02:19:50;;;;;;;8.98;2.13;;;;;;;;;;5031243;28;20079;-70
2023/08/17 02:22:15;;;;;;;5.65;1.88;;;;;;;;;;5031198;28;20546;-74
2023/08/17 02:24:40;;;;;;;3.30;1.48;;;;;;;;;;5030354;28;20017;-71
2023/08/17 02:27:06;;;;;;;2.22;1.10;;;;;;;;;;5031020;28;20013;-72
2023/08/17 02:29:31;;;;;;;3.47;1.15;;;;;;;;;;5030441;28;20021;-71
2023/08/17 02:31:56;;;;;;;2.15;0.95;;;;;;;;;;5030784;28;20017;-71
2023/08/17 02:34:22;;;;;;;3.70;0.82;;;;;;;;;;5028955;28;20013;-74
2023/08/17 02:36:47;;;;;;;2.40;0.80;;;;;;;;;;5015994;28;20013;-70
2023/08/17 02:39:13;;;;;;;1.83;0.90;;;;;;;;;;5030461;28;20391;-68
2023/08/17 02:41:39;;;;;;;2.08;0.80;;;;;;;;;;5030972;28;20060;-71
2023/08/17 02:44:04;;;;;;;0.85;0.50;;;;;;;;;;5029423;28;20017;-70
2023/08/17 02:46:29;;;;;;;2.00;0.70;;;;;;;;;;5030975;28;20036;-70
2023/08/17 02:48:54;;;;;;;0.98;0.75;;;;;;;;;;5030454;28;20516;-73
2023/08/17 02:51:20;;;;;;;1.38;0.80;;;;;;;;;;5030420;28;20051;-70
2023/08/17 02:53:45;;;;;;;5.10;0.90;;;;;;;;;;5030058;28;20060;-72
2023/08/17 02:56:12;;;;;;;2.13;0.90;;;;;;;;;;5030689;28;20036;-72
2023/08/17 02:58:40;;;;;;;1.40;0.70;;;;;;;;;;5029962;28;20040;-73
2023/08/17 03:01:05;;;;;;;2.45;0.88;;;;;;;;;;5030527;28;20063;-71
2023/08/17 03:03:31;;;;;;;2.45;1.10;;;;;;;;;;5030035;28;20410;-72
2023/08/17 03:05:56;;;;;;;1.58;0.80;;;;;;;;;;5028945;28;20033;-72
2023/08/17 03:08:21;;;;;;;1.85;0.88;;;;;;;;;;5029965;28;20028;-73
2023/08/17 03:10:47;;;;;;;2.15;0.90;;;;;;;;;;5030459;28;20021;-72
2023/08/17 03:13:12;;;;;;;4.15;1.23;;;;;;;;;;5029682;28;20242;-71
2023/08/17 03:15:39;;;;;;;2.72;1.13;;;;;;;;;;5028682;28;20405;-67
2023/08/17 03:18:05;;;;;;;5.75;1.48;;;;;;;;;;5030155;28;20021;-71
2023/08/17 03:20:30;;;;;;;5.68;1.25;;;;;;;;;;5029911;28;20032;-72
2023/08/17 03:22:55;;;;;;;6.43;1.33;;;;;;;;;;5029730;28;20018;-72
2023/08/17 03:25:20;;;;;;;4.10;1.00;;;;;;;;;;5029944;28;20023;-71
2023/08/17 03:27:45;;;;;;;2.60;1.08;;;;;;;;;;5029839;28;20017;-71
2023/08/17 03:30:11;;;;;;;4.30;1.33;;;;;;;;;;5029487;28;20052;-68
2023/08/17 03:32:40;;;;;;;4.90;1.30;;;;;;;;;;5028025;28;20105;-72
2023/08/17 03:35:06;;;;;;;11.20;1.50;;;;;;;;;;5016389;28;20014;-72
2023/08/17 03:37:31;;;;;;;3.97;1.20;;;;;;;;;;5019927;28;20017;-69
2023/08/17 03:39:57;;;;;;;6.63;1.33;;;;;;;;;;5029683;28;20103;-72
2023/08/17 03:42:22;;;;;;;7.18;1.70;;;;;;;;;;5030069;28;20025;-70
2023/08/17 03:44:47;;;;;;;3.95;1.70;;;;;;;;;;5029190;28;20027;-71
2023/08/17 03:47:12;;;;;;;6.72;1.50;;;;;;;;;;5029984;28;20080;-71
2023/08/17 03:49:37;;;;;;;3.50;1.17;;;;;;;;;;5029501;28;20022;-72
2023/08/17 03:52:03;;;;;;;2.65;1.27;;;;;;;;;;5029547;28;20017;-72
2023/08/17 03:54:28;;;;;;;5.03;1.65;;;;;;;;;;5029470;28;20029;-73
2023/08/17 03:56:53;;;;;;;7.80;2.10;;;;;;;;;;5031440;28;20032;-72
2023/08/17 03:59:18;;;;;;;7.63;2.25;;;;;;;;;;5033115;28;20025;-73
2023/08/17 04:01:44;;;;;;;7.15;1.80;;;;;;;;;;5033516;28;20021;-73
2023/08/17 04:04:09;;;;;;;4.85;1.60;;;;;;;;;;5033237;28;20021;-70
2023/08/17 04:06:34;;;;;;;6.35;1.52;;;;;;;;;;5033646;28;20014;-72
2023/08/17 04:09:00;;;;;;;5.85;2.17;;;;;;;;;;5033578;28;20048;-67
2023/08/17 04:11:26;;;;;;;6.18;1.63;;;;;;;;;;5033352;28;20006;-68
2023/08/17 04:13:51;;;;;;;6.07;1.65;;;;;;;;;;5032488;28;20009;-72
2023/08/17 04:16:16;;;;;;;5.68;2.08;;;;;;;;;;5033197;28;20064;-71
2023/08/17 04:18:41;;;;;;;7.22;1.90;;;;;;;;;;5033308;28;20020;-73
2023/08/17 04:21:06;;;;;;;7.47;1.80;;;;;;;;;;5031214;28;20032;-70
2023/08/17 04:23:32;;;;;;;5.63;2.05;;;;;;;;;;5026754;28;20041;-73
2023/08/17 04:25:57;;;;;;;5.40;2.30;;;;;;;;;;5033124;28;20017;-75
2023/08/17 04:28:22;;;;;;;4.63;2.13;;;;;;;;;;5033638;28;20545;-74
2023/08/17 04:30:47;;;;;;;9.52;2.08;;;;;;;;;;5030898;28;20363;-73
2023/08/17 04:33:13;;;;;;;6.60;2.00;;;;;;;;;;5027015;28;20418;-70
2023/08/17 04:35:38;;;;;;;8.70;2.30;;;;;;;;;;5023159;28;20052;-71
2023/08/17 04:38:06;;;;;;;4.53;1.83;;;;;;;;;;5024543;28;20120;-73
2023/08/17 04:40:32;;;;;;;7.82;2.22;;;;;;;;;;5031775;28;20025;-73
2023/08/17 04:42:57;;;;;;;4.93;2.10;;;;;;;;;;5032710;28;20023;-71
2023/08/17 04:45:23;;;;;;;5.25;2.22;;;;;;;;;;5032661;28;20056;-72
2023/08/17 04:47:48;;;;;;;6.55;2.40;;;;;;;;;;5032533;28;20429;-70
2023/08/17 04:50:16;;;;;;;7.32;2.53;;;;;;;;;;5031705;28;20009;-68
2023/08/17 04:52:41;;;;;;;5.53;2.20;;;;;;;;;;5032554;28;20076;-71
2023/08/17 04:55:07;;;;;;;7.90;2.53;;;;;;;;;;5032319;28;20479;-71
2023/08/17 04:57:32;;;;;;;5.40;2.30;;;;;;;;;;5032400;28;20057;-72
2023/08/17 04:59:57;;;;;;;5.75;2.17;;;;;;;;;;5032726;28;20021;-70
2023/08/17 05:02:23;;;;;;;13.77;2.28;;;;;;;;;;5032023;28;20035;-71
2023/08/17 05:04:48;;;;;;;6.18;2.20;;;;;;;;;;5031415;28;20056;-72
2023/08/17 05:07:13;;;;;;;5.93;2.30;;;;;;;;;;5030868;28;20014;-71
2023/08/17 05:09:38;;;;;;;8.10;1.90;;;;;;;;;;5027645;28;20080;-72
2023/08/17 05:12:04;;;;;;;3.63;1.90;;;;;;;;;;5027419;28;20021;-71
2023/08/17 05:14:29;;;;;;;3.45;1.83;;;;;;;;;;5023610;28;20021;-73
2023/08/17 05:16:54;;;;;;;4.00;1.85;;;;;;;;;;5031863;28;20471;-71
2023/08/17 05:19:19;;;;;;;3.58;2.00;;;;;;;;;;5032122;28;20637;-72
2023/08/17 05:21:45;;;;;;;6.70;2.65;;;;;;;;;;5031559;28;20020;-69
2023/08/17 05:24:10;;;;;;;5.20;1.88;;;;;;;;;;5031806;28;20119;-69
2023/08/17 05:26:36;;;;;;;5.60;2.08;;;;;;;;;;5031799;28;20025;-70
2023/08/17 05:29:01;;;;;;;5.13;1.90;;;;;;;;;;5031251;28;20021;-72
2023/08/17 05:31:26;;;;;;;6.47;2.45;;;;;;;;;;5031243;28;20065;-69
2023/08/17 05:33:52;;;;;;;4.60;1.80;;;;;;;;;;5024467;28;20041;-69
2023/08/17 05:36:17;;;;;;;4.50;2.08;;;;;;;;;;5019710;28;20076;-70
2023/08/17 05:38:42;;;;;;;7.30;1.88;;;;;;;;;;5030445;28;20092;-70
2023/08/17 05:41:08;;;;;;;3.22;1.67;;;;;;;;;;5030443;28;20048;-69
2023/08/17 05:43:33;;;;;;;5.88;1.95;;;;;;;;;;5030653;28;20057;-69
2023/08/17 05:46:01;;;;;;;5.50;1.95;;;;;;;;;;5030603;28;20020;-71
2023/08/17 05:48:26;;;;;;;4.00;1.95;;;;;;;;;;5031258;28;20486;-69
2023/08/17 05:50:52;;;;;;;3.53;1.50;;;;;;;;;;5030679;28;20025;-68
2023/08/17 05:53:17;;;;;;;5.07;1.58;;;;;;;;;;5030568;28;20024;-71
2023/08/17 05:55:42;;;;;;;6.07;1.80;;;;;;;;;;5031245;28;20030;-70
2023/08/17 05:58:07;;;;;;;3.42;1.52;;;;;;;;;;5031610;28;20036;-70
2023/08/17 06:00:33;;;;;;;4.20;1.90;;;;;;;;;;5029135;28;20022;-70
2023/08/17 06:03:01;;;;;;;5.57;1.55;;;;;;;;;;5031239;28;20020;-71
2023/08/17 06:05:26;;;;;;;2.78;1.50;;;;;;;;;;5030888;28;20013;-71
2023/08/17 06:07:52;;;;;;;7.78;1.98;;;;;;;;;;5031557;28;20388;-69
2023/08/17 06:10:17;;;;;;;3.25;1.73;;;;;;;;;;5031282;28;20565;-71
2023/08/17 06:12:42;;;;;;;6.00;2.10;;;;;;;;;;5028964;28;20021;-71
2023/08/17 06:15:08;;;;;;;5.22;1.75;;;;;;;;;;5023783;28;20025;-70
2023/08/17 06:17:33;;;;;;;3.72;1.83;;;;;;;;;;5030774;28;20020;-71
2023/08/17 06:19:58;;;;;;;4.35;1.95;;;;;;;;;;5028453;28;20029;-70
2023/08/17 06:22:23;;;;;;;5.82;1.90;;;;;;;;;;5031306;28;20070;-71
2023/08/17 06:24:48;;;;;;;7.78;2.15;;;;;;;;;;5030748;28;20080;-70
2023/08/17 06:27:14;;;;;;;3.78;1.63;;;;;;;;;;5031297;28;20009;-70
2023/08/17 06:29:39;;;;;;;5.00;1.67;;;;;;;;;;5030453;28;20421;-71
2023/08/17 06:32:05;;;;;;;3.40;1.60;;;;;;;;;;5030375;28;20021;-69
2023/08/17 06:34:30;;;;;;;3.38;1.42;;;;;;;;;;5025600;28;20028;-68
2023/08/17 06:36:59;;;;;;;6.47;1.73;;;;;;;;;;5022018;28;20491;-69
2023/08/17 06:39:25;;;;;;;4.25;1.80;;;;;;;;;;5030560;28;20017;-72
2023/08/17 06:41:50;;;;;;;5.85;1.90;;;;;;;;;;5029590;28;20024;-68
2023/08/17 06:44:15;;;;;;;5.05;2.03;;;;;;;;;;5031493;28;20112;-70
2023/08/17 06:46:40;;;;;;;4.90;2.30;;;;;;;;;;5028983;28;20020;-68
2023/08/17 06:49:06;;;;;;;6.65;2.20;;;;;;;;;;5030210;28;20022;-72
2023/08/17 06:51:31;;;;;;;8.35;2.88;;;;;;;;;;5030025;28;20019;-69
2023/08/17 06:53:56;;;;;;;6.57;2.20;;;;;;;;;;5030074;28;20017;-72
2023/08/17 06:56:22;;;;;;;6.32;2.65;;;;;;;;;;5030607;28;20270;-72
2023/08/17 06:58:48;;;;;;;5.25;2.80;;;;;;;;;;5028424;28;20029;-71
2023/08/17 07:01:14;;;;;;;5.53;2.60;;;;;;;;;;5029753;28;20036;-72
2023/08/17 07:03:40;;;;;;;7.05;2.78;;;;;;;;;;5030025;28;20100;-71
2023/08/17 07:06:05;;;;;;;5.28;2.80;;;;;;;;;;5029872;28;20175;-72
2023/08/17 07:08:32;;;;;;;5.32;2.40;;;;;;;;;;5030124;28;20041;-70
2023/08/17 07:10:58;;;;;;;11.02;2.40;;;;;;;;;;5030507;28;20075;-71
2023/08/17 07:13:23;;;;;;;4.97;2.40;;;;;;;;;;5016627;28;20009;-72
2023/08/17 07:15:48;;;;;;;9.57;2.65;;;;;;;;;;5029567;28;20021;-73
2023/08/17 07:18:14;;;;;;;6.35;2.10;;;;;;;;;;5030069;28;20455;-67
2023/08/17 07:20:39;;;;;;;4.70;2.35;;;;;;;;;;5029560;28;20017;-71
2023/08/17 07:23:04;;;;;;;5.35;2.72;;;;;;;;;;5028437;28;20030;-71
2023/08/17 07:25:30;;;;;;;4.47;1.98;;;;;;;;;;5030200;28;20105;-68
2023/08/17 07:27:55;;;;;;;6.28;2.17;;;;;;;;;;5029858;28;20459;-71
2023/08/17 07:30:20;;;;;;;13.82;2.70;;;;;;;;;;5029227;28;20093;-71
2023/08/17 07:32:46;;;;;;;6.70;3.38;;;;;;;;;;5028644;28;20052;-73
2023/08/17 07:35:11;;;;;;;13.38;3.20;;;;;;;;;;5018903;28;20018;-71
2023/08/17 07:37:36;;;;;;;7.35;3.40;;;;;;;;;;5025583;28;20092;-72
2023/08/17 07:40:04;;;;;;;6.15;3.30;;;;;;;;;;5030130;28;20013;-69
2023/08/17 07:42:31;;;;;;;6.13;3.33;;;;;;;;;;5029614;28;20450;-71
2023/08/17 07:44:56;;;;;;;9.38;3.70;;;;;;;;;;5029206;28;20494;-72
2023/08/17 07:47:21;;;;;;;7.10;4.28;;;;;;;;;;5029523;28;20018;-71
2023/08/17 07:49:47;;;;;;;14.38;4.82;;;;;;;;;;5029445;28;20065;-72
2023/08/17 07:52:12;;;;;;;10.07;4.70;;;;;;;;;;5029735;28;20087;-69
2023/08/17 07:54:37;;;;;;;9.30;4.72;;;;;;;;;;5029754;28;20025;-71
2023/08/17 07:57:03;;;;;;;8.98;4.55;;;;;;;;;;5031613;28;20036;-71
2023/08/17 07:59:28;;;;;;;7.22;4.97;;;;;;;;;;5034909;22;20120;-69
2023/08/17 08:01:53;;;;;;;10.73;5.15;;;;;;;;;;5027954;28;20094;-68
2023/08/17 08:04:19;;;;;;;10.05;5.40;;;;;;;;;;5027231;28;20092;-70
2023/08/17 08:06:44;;;;;;;14.00;5.70;;;;;;;;;;5027427;28;20037;-68
2023/08/17 08:09:09;;;;;;;15.45;5.75;;;;;;;;;;5027961;28;20017;-70
2023/08/17 08:11:34;;;;;;;8.68;5.47;;;;;;;;;;5025926;28;20018;-69
2023/08/17 08:14:00;;;;;;;10.48;6.00;;;;;;;;;;5024079;28;20105;-68
2023/08/17 08:16:25;;;;;;;11.75;6.20;;;;;;;;;;5027623;28;20092;-69
2023/08/17 08:18:50;;;;;;;15.73;5.78;;;;;;;;;;5028459;28;20446;-69
2023/08/17 08:21:15;;;;;;;10.65;5.25;;;;;;;;;;5027094;28;20044;-70
2023/08/17 08:23:40;;;;;;;8.90;5.55;;;;;;;;;;5027780;28;20020;-69
2023/08/17 08:26:06;;;;;;;14.02;5.28;;;;;;;;;;5027748;28;20067;-70
2023/08/17 08:28:31;;;;;;;10.35;5.70;;;;;;;;;;5027275;28;20187;-69
2023/08/17 08:31:01;;;;;;;10.80;5.90;;;;;;;;;;5027221;28;20092;-68
2023/08/17 08:33:26;;;;;;;9.02;5.85;;;;;;;;;;5026927;28;20097;-68
2023/08/17 08:35:52;;;;;;;9.70;5.30;;;;;;;;;;5016075;28;20028;-70
2023/08/17 08:38:17;;;;;;;11.25;5.63;;;;;;;;;;5022644;28;20364;-65
2023/08/17 08:40:43;;;;;;;10.30;6.07;;;;;;;;;;5027804;28;20124;-68
2023/08/17 08:43:09;;;;;;;9.35;5.32;;;;;;;;;;5029412;28;20317;-70
2023/08/17 08:45:36;;;;;;;12.43;6.40;;;;;;;;;;5030743;28;20105;-68
2023/08/17 08:48:03;;;;;;;10.10;6.38;;;;;;;;;;5029521;28;20020;-69
2023/08/17 08:50:31;;;;;;;10.25;5.75;;;;;;;;;;5031170;28;20032;-69
2023/08/17 08:53:00;;;;;;;19.10;6.50;;;;;;;;;;5031535;28;20375;-68
2023/08/17 08:55:38;;;;;;;10.38;5.70;;;;;;;;;;5031283;28;20490;-71
2023/08/17 08:58:04;;;;;;;8.82;5.47;;;;;;;;;;5031315;28;20017;-71
2023/08/17 09:00:30;;;;;;;11.60;6.25;;;;;;;;;;5029439;28;20101;-69
2023/08/17 09:02:55;;;;;;;11.32;6.30;;;;;;;;;;5030532;28;20122;-68
2023/08/17 09:05:21;;;;;;;12.07;6.65;;;;;;;;;;5030453;28;20032;-70
2023/08/17 09:07:48;;;;;;;8.32;5.10;;;;;;;;;;5030984;28;20033;-69
2023/08/17 09:10:16;;;;;;;14.55;5.20;;;;;;;;;;5030821;28;20017;-68
2023/08/17 09:12:41;;;;;;;11.65;5.30;;;;;;;;;;5028501;28;20033;-69
2023/08/17 09:15:06;;;;;;;10.70;5.70;;;;;;;;;;5029005;28;20051;-71
2023/08/17 09:17:34;;;;;;;9.68;5.38;;;;;;;;;;5028360;28;20317;-65
2023/08/17 09:19:59;;;;;;;9.82;5.38;;;;;;;;;;5030750;28;20108;-66
2023/08/17 09:22:43;;;;;;;12.63;5.97;;;;;;;;;;5030173;28;20013;-69
2023/08/17 09:25:09;;;;;;;10.70;6.00;;;;;;;;;;5018332;28;20370;-71
2023/08/17 09:27:36;;;;;;;9.75;5.88;;;;;;;;;;5030728;28;20060;-70
2023/08/17 09:30:09;;;;;;;11.15;5.68;;;;;;;;;;5029547;28;20025;-66
2023/08/17 09:32:34;;;;;;;11.05;5.78;;;;;;;;;;5029547;28;20045;-68
2023/08/17 09:35:06;;;;;;;9.18;5.65;;;;;;;;;;5019176;28;20040;-68
2023/08/17 09:37:32;;;;;;;8.25;5.90;;;;;;;;;;5019335;28;20460;-69
2023/08/17 09:39:57;;;;;;;11.63;7.15;;;;;;;;;;5030504;28;20078;-71
2023/08/17 09:42:23;;;;;;;16.48;7.00;;;;;;;;;;5028216;28;20017;-67
2023/08/17 09:44:49;;;;;;;13.45;5.65;;;;;;;;;;5029419;28;20134;-68
2023/08/17 09:47:14;;;;;;;14.85;6.72;;;;;;;;;;5029730;28;20376;-67
2023/08/17 09:49:39;;;;;;;11.20;6.07;;;;;;;;;;5029847;28;20093;-69
2023/08/17 09:52:04;;;;;;;10.60;6.47;;;;;;;;;;5030382;28;20048;-69
2023/08/17 09:54:30;;;;;;;11.43;6.28;;;;;;;;;;5028353;28;20013;-70
2023/08/17 09:56:55;;;;;;;12.57;7.25;;;;;;;;;;5030003;28;20253;-66
2023/08/17 09:59:21;;;;;;;11.23;6.45;;;;;;;;;;5028724;28;20036;-69
2023/08/17 10:01:48;;;;;;;9.18;6.80;;;;;;;;;;5029719;28;20030;-70
2023/08/17 10:04:15;;;;;;;12.90;7.13;;;;;;;;;;5029940;28;20096;-67
2023/08/17 10:06:41;;;;;;;9.85;6.30;;;;;;;;;;5029685;28;20025;-69
2023/08/17 10:09:07;;;;;;;12.30;7.18;;;;;;;;;;5029995;28;20088;-68
2023/08/17 10:11:34;;;;;;;11.80;7.05;;;;;;;;;;5026794;28;20094;-67
2023/08/17 10:14:05;;;;;;;12.90;7.07;;;;;;;;;;5022335;28;20124;-69
2023/08/17 10:16:36;;;;;;;9.23;6.05;;;;;;;;;;5029634;28;20025;-69
2023/08/17 10:19:17;;;;;;;10.95;6.68;;;;;;;;;;5030524;28;20025;-70
2023/08/17 10:21:51;;;;;;;16.35;7.18;;;;;;;;;;5030122;28;20025;-66
2023/08/17 10:24:17;;;;;;;12.68;7.72;;;;;;;;;;5030064;28;20040;-68
2023/08/17 10:26:43;;;;;;;11.77;7.13;;;;;;;;;;5029803;28;20370;-68
2023/08/17 10:29:08;;;;;;;13.75;6.88;;;;;;;;;;5030075;28;20021;-70
2023/08/17 10:31:34;;;;;;;10.88;6.20;;;;;;;;;;5029007;28;20014;-69
2023/08/17 10:34:00;;;;;;;10.32;6.90;;;;;;;;;;5018876;28;20022;-70
2023/08/17 10:36:25;;;;;;;10.13;6.32;;;;;;;;;;5020103;28;20109;-69
2023/08/17 10:39:09;;;;;;;9.57;6.55;;;;;;;;;;5028641;28;20041;-69
2023/08/17 10:41:45;;;;;;;12.23;6.80;;;;;;;;;;5029027;28;20101;-69
2023/08/17 10:44:11;;;;;;;10.80;6.18;;;;;;;;;;5029660;28;20021;-66
2023/08/17 10:46:37;;;;;;;9.20;6.22;;;;;;;;;;5028892;28;20082;-69
2023/08/17 10:49:04;;;;;;;15.40;6.97;;;;;;;;;;5028733;28;20025;-69
2023/08/17 10:51:30;;;;;;;8.70;6.03;;;;;;;;;;5028106;28;20018;-69
2023/08/17 10:53:58;;;;;;;13.20;6.20;;;;;;;;;;5027325;28;20447;-68
2023/08/17 10:56:26;;;;;;;9.88;5.88;;;;;;;;;;5029087;28;20555;-69
2023/08/17 10:58:51;;;;;;;9.63;6.35;;;;;;;;;;5028094;28;20179;-66
2023/08/17 11:01:30;;;;;;;11.35;6.20;;;;;;;;;;5028371;28;20459;-68
2023/08/17 11:04:11;;;;;;;9.80;6.13;;;;;;;;;;5015117;28;20078;-68
2023/08/17 11:06:36;;;;;;;14.32;6.88;;;;;;;;;;5028089;28;20324;-70
2023/08/17 11:09:06;;;;;;;10.63;6.35;;;;;;;;;;5028714;28;20028;-70
2023/08/17 11:11:31;;;;;;;11.73;6.80;;;;;;;;;;5028273;28;20075;-71
2023/08/17 11:13:57;;;;;;;14.70;6.32;;;;;;;;;;5025331;28;20097;-71
2023/08/17 11:16:23;;;;;;;12.95;5.68;;;;;;;;;;5027840;28;20028;-71
2023/08/17 11:18:49;;;;;;;9.32;6.18;;;;;;;;;;5028465;28;20719;-67
2023/08/17 11:21:15;;;;;;;18.05;6.53;;;;;;;;;;5028166;28;20009;-67
2023/08/17 11:23:40;;;;;;;11.75;6.50;;;;;;;;;;5026493;28;20346;-69
2023/08/17 11:26:06;;;;;;;12.40;6.35;;;;;;;;;;5027832;28;20134;-68
2023/08/17 11:28:36;;;;;;;11.13;5.70;;;;;;;;;;5027509;28;20085;-70
2023/08/17 11:31:05;;;;;;;12.68;5.75;;;;;;;;;;5027485;28;20017;-70
2023/08/17 11:33:31;;;;;;;8.40;5.80;;;;;;;;;;5021880;28;20436;-68
2023/08/17 11:35:56;;;;;;;9.52;5.72;;;;;;;;;;5015568;28;20051;-67
2023/08/17 11:38:22;;;;;;;10.82;6.55;;;;;;;;;;5026226;28;20459;-69
2023/08/17 11:40:47;;;;;;;9.07;6.03;;;;;;;;;;5027749;28;20032;-69
2023/08/17 11:43:13;;;;;;;8.93;5.82;;;;;;;;;;5027776;28;20033;-70
2023/08/17 11:45:39;;;;;;;11.90;5.38;;;;;;;;;;5027269;28;20068;-66
2023/08/17 11:48:04;;;;;;;10.93;6.05;;;;;;;;;;5028052;28;20020;-68
2023/08/17 11:50:29;;;;;;;13.55;6.38;;;;;;;;;;5026828;28;20029;-69
2023/08/17 11:52:55;;;;;;;11.40;6.33;;;;;;;;;;5027887;28;20018;-67
2023/08/17 11:55:20;;;;;;;10.30;5.20;;;;;;;;;;5028011;28;20312;-67
2023/08/17 11:57:46;;;;;;;14.95;6.25;;;;;;;;;;5027644;28;20392;-70
2023/08/17 12:00:17;;;;;;;11.45;6.20;;;;;;;;;;5027245;28;20108;-69
2023/08/17 12:02:43;;;;;;;9.30;5.78;;;;;;;;;;5027950;28;20017;-70
2023/08/17 12:05:09;;;;;;;9.63;5.15;;;;;;;;;;5027754;28;20140;-70
2023/08/17 12:07:34;;;;;;;9.25;5.07;;;;;;;;;;5028472;28;20017;-69
2023/08/17 12:10:02;;;;;;;10.70;5.18;;;;;;;;;;5027360;28;20014;-69
2023/08/17 12:12:28;;;;;;;9.82;4.78;;;;;;;;;;5017349;28;20021;-70
2023/08/17 12:14:53;;;;;;;11.63;5.90;;;;;;;;;;5019452;28;20105;-69
2023/08/17 12:17:19;;;;;;;19.55;6.22;;;;;;;;;;5027379;28;20477;-69
2023/08/17 12:19:48;;;;;;;9.38;5.40;;;;;;;;;;5030493;28;20020;-68
2023/08/17 12:22:13;;;;;;;8.52;4.80;;;;;;;;;;5031893;28;20013;-69
2023/08/17 12:24:39;;;;;;;10.80;6.03;;;;;;;;;;5031281;28;20100;-69
2023/08/17 12:27:05;;;;;;;13.35;5.80;;;;;;;;;;5031529;28;20671;-69
2023/08/17 12:29:30;;;;;;;9.18;5.10;;;;;;;;;;5029855;28;20010;-68
2023/08/17 12:32:00;;;;;;;8.25;5.07;;;;;;;;;;5029476;28;20021;-67
2023/08/17 12:34:25;;;;;;;9.20;5.63;;;;;;;;;;5025672;28;20022;-66
2023/08/17 12:36:50;;;;;;;10.10;6.13;;;;;;;;;;5022033;28;20017;-67
2023/08/17 12:39:16;;;;;;;11.50;5.77;;;;;;;;;;5031162;28;20534;-67
2023/08/17 12:41:41;;;;;;;11.77;5.80;;;;;;;;;;5031281;28;20850;-70
2023/08/17 12:44:09;;;;;;;9.73;5.65;;;;;;;;;;5031196;28;20087;-69
2023/08/17 12:46:34;;;;;;;11.50;5.93;;;;;;;;;;5031240;28;20025;-69
2023/08/17 12:48:59;;;;;;;10.93;5.05;;;;;;;;;;5031356;28;20028;-69
2023/08/17 12:51:25;;;;;;;12.25;5.35;;;;;;;;;;5031875;28;20014;-66
2023/08/17 12:53:50;;;;;;;11.60;5.97;;;;;;;;;;5030780;28;20108;-70
2023/08/17 12:56:15;;;;;;;8.02;5.13;;;;;;;;;;5030360;28;20044;-66
2023/08/17 12:58:40;;;;;;;11.48;5.75;;;;;;;;;;5031177;28;20027;-70
2023/08/17 13:01:06;;;;;;;8.52;5.20;;;;;;;;;;5030411;28;20471;-66
2023/08/17 13:03:31;;;;;;;11.07;5.82;;;;;;;;;;5028981;28;20022;-69
2023/08/17 13:05:56;;;;;;;14.15;5.32;;;;;;;;;;5030261;28;20408;-71
2023/08/17 13:08:21;;;;;;;8.65;6.00;;;;;;;;;;5030933;28;20013;-70
2023/08/17 13:10:47;;;;;;;10.77;5.80;;;;;;;;;;5030498;28;20014;-67
2023/08/17 13:13:12;;;;;;;10.68;5.95;;;;;;;;;;5027616;28;20253;-69
2023/08/17 13:15:37;;;;;;;13.18;5.50;;;;;;;;;;5030550;28;20464;-67
2023/08/17 13:18:03;;;;;;;9.05;5.53;;;;;;;;;;5030144;28;20025;-68
2023/08/17 13:20:28;;;;;;;7.57;5.25;;;;;;;;;;5028919;28;20097;-66
2023/08/17 13:22:53;;;;;;;8.32;5.47;;;;;;;;;;5031038;28;20168;-69
2023/08/17 13:25:19;;;;;;;12.95;5.93;;;;;;;;;;5029948;28;20359;-68
2023/08/17 13:27:44;;;;;;;11.57;5.67;;;;;;;;;;5030218;28;20025;-67
2023/08/17 13:30:09;;;;;;;9.07;5.63;;;;;;;;;;5029789;28;20333;-69
2023/08/17 13:32:35;;;;;;;9.25;5.28;;;;;;;;;;5029152;28;20022;-68
2023/08/17 13:35:01;;;;;;;11.68;5.60;;;;;;;;;;5015377;28;20018;-68
2023/08/17 13:37:27;;;;;;;13.27;5.55;;;;;;;;;;5027027;28;20056;-71
2023/08/17 13:39:53;;;;;;;13.13;6.53;;;;;;;;;;5031498;28;20024;-67
2023/08/17 13:42:18;;;;;;;9.20;5.55;;;;;;;;;;5031444;28;20018;-70
2023/08/17 13:44:43;;;;;;;7.90;5.10;;;;;;;;;;5030183;28;20124;-66
2023/08/17 13:47:08;;;;;;;11.90;6.68;;;;;;;;;;5029809;28;20309;-70
2023/08/17 13:49:34;;;;;;;9.00;5.47;;;;;;;;;;5029727;28;20092;-68
2023/08/17 13:51:59;;;;;;;8.18;5.78;;;;;;;;;;5028776;28;20257;-70
2023/08/17 13:54:24;;;;;;;10.50;5.70;;;;;;;;;;5029551;28;20048;-70
2023/08/17 13:56:49;;;;;;;14.18;6.38;;;;;;;;;;5029867;28;20525;-69
2023/08/17 13:59:15;;;;;;;9.07;5.53;;;;;;;;;;5030260;28;20024;-66
2023/08/17 14:01:40;;;;;;;8.65;5.68;;;;;;;;;;5030593;28;20449;-69
2023/08/17 14:04:11;;;;;;;10.77;5.57;;;;;;;;;;5028700;28;20022;-67
2023/08/17 14:06:36;;;;;;;14.07;5.60;;;;;;;;;;5029036;28;20278;-67
2023/08/17 14:09:02;;;;;;;14.13;5.83;;;;;;;;;;5029880;28;20009;-68
2023/08/17 14:11:27;;;;;;;11.25;6.13;;;;;;;;;;5029925;28;20735;-70
2023/08/17 14:13:53;;;;;;;8.40;5.60;;;;;;;;;;5025680;28;20085;-65
2023/08/17 14:16:18;;;;;;;9.90;5.23;;;;;;;;;;5029234;28;20262;-68
2023/08/17 14:18:43;;;;;;;8.43;5.50;;;;;;;;;;5029731;28;20246;-71
2023/08/17 14:21:08;;;;;;;14.20;6.05;;;;;;;;;;5029715;28;20324;-69
2023/08/17 14:23:33;;;;;;;8.43;5.70;;;;;;;;;;5030284;28;20072;-67
2023/08/17 14:25:59;;;;;;;7.20;5.43;;;;;;;;;;5029617;28;20128;-66
2023/08/17 14:28:24;;;;;;;11.10;5.43;;;;;;;;;;5029115;28;20262;-67
2023/08/17 14:30:49;;;;;;;10.60;6.00;;;;;;;;;;5028480;28;20336;-68